Time,TemperatureF,DewpointF,PressureIn,WindDirection,WindDirectionDegrees,WindSpeedMPH,WindSpeedGustMPH,Humidity,HourlyPrecipIn,Conditions,Clouds,dailyrainin,SoftwareType,DateUTC
2013-04-24 00:00:00,41.8,40.2,29.89,NW,314,4.0,11.0,94,0.12,,CLR,0.00,VWS V14.00,2013-04-24 05:00:00,
2013-04-24 00:01:00,41.8,40.5,29.89,West,275,8.0,8.0,95,0.12,,RA,0.03,VWS V14.00,2013-04-24 05:01:00,
2013-04-24 00:06:00,41.8,40.5,29.90,West,264,7.0,10.0,95,0.14,,RA,0.05,VWS V14.00,2013-04-24 05:06:00,
2013-04-24 00:11:00,41.8,40.5,29.89,WNW,290,5.0,10.0,95,0.14,,RA,0.05,VWS V14.00,2013-04-24 05:11:00,
2013-04-24 00:16:00,41.8,40.5,29.90,WSW,253,3.0,10.0,95,0.15,,RA,0.06,VWS V14.00,2013-04-24 05:16:00,
2013-04-24 00:21:00,41.7,40.4,29.89,NNW,335,4.0,10.0,95,0.15,,RA,0.06,VWS V14.00,2013-04-24 05:21:00,
2013-04-24 00:26:00,41.7,40.4,29.90,West,266,4.0,14.0,95,0.14,,RA,0.07,VWS V14.00,2013-04-24 05:26:00,
2013-04-24 00:30:00,41.5,40.2,29.90,WNW,286,3.0,14.0,95,0.14,,RA,0.07,VWS V14.00,2013-04-24 05:30:00,
2013-04-24 00:35:00,41.5,40.2,29.90,North,5,5.0,14.0,95,0.14,,RA,0.07,VWS V14.00,2013-04-24 05:35:00,
2013-04-24 00:40:00,41.3,40.0,29.90,West,277,4.0,14.0,95,0.15,,RA,0.08,VWS V14.00,2013-04-24 05:40:00,
2013-04-24 00:45:00,41.3,39.7,29.90,NNW,333,3.0,14.0,94,0.15,,RA,0.08,VWS V14.00,2013-04-24 05:45:00,
2013-04-24 00:50:00,41.2,39.9,29.90,NNW,336,6.0,14.0,95,0.16,,RA,0.09,VWS V14.00,2013-04-24 05:50:00,
2013-04-24 00:55:00,41.2,39.6,29.89,North,355,2.0,7.0,94,0.10,,RA,0.10,VWS V14.00,2013-04-24 05:55:00,
2013-04-24 01:00:00,41.1,39.5,29.88,NNW,335,1.0,8.0,94,0.10,,OVC020,0.10,VWS V14.00,2013-04-24 06:00:00,
2013-04-24 01:05:00,41.0,39.4,29.89,WSW,249,4.0,9.0,94,0.11,,OVC020,0.11,VWS V14.00,2013-04-24 06:05:00,
2013-04-24 01:10:00,41.0,39.4,29.89,North,355,1.0,10.0,94,0.11,,OVC020,0.11,VWS V14.00,2013-04-24 06:10:00,
2013-04-24 01:15:00,40.8,39.2,29.89,NW,305,4.0,14.0,94,0.11,,OVC020,0.11,VWS V14.00,2013-04-24 06:15:00,
2013-04-24 01:20:00,40.7,39.1,29.88,NNE,19,3.0,14.0,94,0.11,,OVC021,0.11,VWS V14.00,2013-04-24 06:20:00,
2013-04-24 01:25:00,40.7,39.1,29.88,SSW,194,4.0,8.0,94,0.05,,OVC021,0.11,VWS V14.00,2013-04-24 06:25:00,
2013-04-24 01:30:00,40.6,39.0,29.88,NW,316,4.0,10.0,94,0.05,,OVC021,0.11,VWS V14.00,2013-04-24 06:30:00,
2013-04-24 01:35:00,40.5,38.9,29.89,North,355,4.0,10.0,94,0.05,,OVC021,0.11,VWS V14.00,2013-04-24 06:35:00,
2013-04-24 01:40:00,40.4,38.8,29.89,NNE,29,0.0,10.0,94,0.05,,-RA,0.11,VWS V14.00,2013-04-24 06:40:00,
2013-04-24 01:45:00,40.4,38.8,29.89,NNW,344,2.0,10.0,94,0.05,,-RA,0.11,VWS V14.00,2013-04-24 06:45:00,
2013-04-24 01:50:00,40.4,38.8,29.87,NW,310,6.0,11.0,94,0.07,,-RA,0.13,VWS V14.00,2013-04-24 06:50:00,
2013-04-24 01:55:00,40.2,38.6,29.88,WNW,303,2.0,11.0,94,0.05,,-RA,0.14,VWS V14.00,2013-04-24 06:55:00,
2013-04-24 02:00:00,40.2,38.6,29.90,West,267,2.0,11.0,94,0.06,,OVC038,0.15,VWS V14.00,2013-04-24 07:00:00,
2013-04-24 02:05:00,40.1,38.5,29.88,WNW,289,2.0,11.0,94,0.08,,OVC038,0.17,VWS V14.00,2013-04-24 07:05:00,
2013-04-24 02:10:00,40.0,38.4,29.89,NW,307,3.0,11.0,94,0.10,,OVC038,0.19,VWS V14.00,2013-04-24 07:10:00,
2013-04-24 02:15:00,39.9,38.3,29.90,West,261,3.0,11.0,94,0.12,,OVC038,0.21,VWS V14.00,2013-04-24 07:15:00,
2013-04-24 02:20:00,39.9,38.3,29.88,North,9,1.0,11.0,94,0.13,,RA,0.22,VWS V14.00,2013-04-24 07:20:00,
2013-04-24 02:25:00,39.8,38.2,29.90,West,281,5.0,7.0,94,0.13,,RA,0.24,VWS V14.00,2013-04-24 07:25:00,
2013-04-24 02:30:00,39.7,38.1,29.90,WNW,285,1.0,7.0,94,0.14,,RA,0.25,VWS V14.00,2013-04-24 07:30:00,
2013-04-24 02:35:00,39.7,38.4,29.91,WNW,292,7.0,9.0,95,0.14,,RA,0.25,VWS V14.00,2013-04-24 07:35:00,
2013-04-24 02:40:00,39.7,38.4,29.89,NW,323,1.0,9.0,95,0.14,,OVC033,0.25,VWS V14.00,2013-04-24 07:40:00,
2013-04-24 02:45:00,39.7,38.4,29.88,North,10,9.0,9.0,95,0.15,,OVC033,0.26,VWS V14.00,2013-04-24 07:45:00,
2013-04-24 02:50:00,39.6,38.3,29.88,NNE,33,3.0,10.0,95,0.15,,OVC033,0.26,VWS V14.00,2013-04-24 07:50:00,
2013-04-24 02:55:00,39.5,38.2,29.88,NNE,32,4.0,9.0,95,0.13,,OVC033,0.26,VWS V14.00,2013-04-24 07:55:00,
2013-04-24 03:00:00,39.5,37.9,29.89,WNW,291,3.0,9.0,94,0.14,,-RA,0.27,VWS V14.00,2013-04-24 08:00:00,
2013-04-24 03:05:00,39.5,38.2,29.90,WNW,302,0.0,9.0,95,0.15,,-RA,0.28,VWS V14.00,2013-04-24 08:05:00,
2013-04-24 03:10:00,39.6,38.3,29.89,NNW,336,1.0,9.0,95,0.17,,-RA,0.30,VWS V14.00,2013-04-24 08:10:00,
2013-04-24 03:15:00,39.6,38.3,29.91,West,275,5.0,9.0,95,0.19,,-RA,0.32,VWS V14.00,2013-04-24 08:15:00,
2013-04-24 03:20:00,39.5,38.2,29.89,WNW,296,6.0,9.0,95,0.20,,RA,0.33,VWS V14.00,2013-04-24 08:20:00,
2013-04-24 03:25:00,39.5,38.2,29.91,West,259,4.0,9.0,95,0.11,,RA,0.33,VWS V14.00,2013-04-24 08:25:00,
2013-04-24 03:30:00,39.5,38.2,29.91,NNE,30,6.0,9.0,95,0.11,,RA,0.33,VWS V14.00,2013-04-24 08:30:00,
2013-04-24 03:35:00,39.5,38.2,29.89,North,10,8.0,9.0,95,0.12,,RA,0.34,VWS V14.00,2013-04-24 08:35:00,
2013-04-24 03:40:00,39.5,38.2,29.90,NW,321,1.0,9.0,95,0.12,,RA,0.34,VWS V14.00,2013-04-24 08:40:00,
2013-04-24 03:45:00,39.5,38.2,29.90,West,271,5.0,19.0,95,0.13,,RA,0.35,VWS V14.00,2013-04-24 08:45:00,
2013-04-24 03:50:00,39.4,37.8,29.90,NW,317,7.0,19.0,94,0.13,,RA,0.35,VWS V14.00,2013-04-24 08:50:00,
2013-04-24 03:55:00,39.3,37.7,29.92,North,355,2.0,10.0,94,0.11,,RA,0.37,VWS V14.00,2013-04-24 08:55:00,
2013-04-24 04:00:00,39.3,37.7,29.92,NNE,28,8.0,11.0,94,0.12,,RA,0.38,VWS V14.00,2013-04-24 09:00:00,
2013-04-24 04:05:00,39.3,37.7,29.91,NNW,337,3.0,11.0,94,0.14,,RA,0.40,VWS V14.00,2013-04-24 09:05:00,
2013-04-24 04:10:00,39.2,37.6,29.91,NW,304,8.0,11.0,94,0.16,,RA,0.42,VWS V14.00,2013-04-24 09:10:00,
2013-04-24 04:15:00,39.2,37.6,29.91,NNW,335,1.0,11.0,94,0.17,,RA,0.43,VWS V14.00,2013-04-24 09:15:00,
2013-04-24 04:20:00,39.2,37.6,29.91,North,355,3.0,11.0,94,0.18,,RA,0.44,VWS V14.00,2013-04-24 09:20:00,
2013-04-24 04:25:00,39.2,37.9,29.92,WNW,297,2.0,11.0,95,0.12,,RA,0.45,VWS V14.00,2013-04-24 09:25:00,
2013-04-24 04:30:00,39.2,37.9,29.94,West,269,0.0,11.0,95,0.13,,RA,0.46,VWS V14.00,2013-04-24 09:30:00,
2013-04-24 04:35:00,39.2,37.6,29.92,NNW,348,4.0,11.0,94,0.16,,RA,0.49,VWS V14.00,2013-04-24 09:35:00,
2013-04-24 04:40:00,39.1,37.5,29.91,NNE,13,4.0,11.0,94,0.18,,RA,0.51,VWS V14.00,2013-04-24 09:40:00,
2013-04-24 04:45:00,39.0,37.4,29.92,NNW,342,3.0,15.0,94,0.19,,RA,0.52,VWS V14.00,2013-04-24 09:45:00,
2013-04-24 04:50:00,39.0,37.4,29.91,North,5,7.0,15.0,94,0.20,,RA,0.53,VWS V14.00,2013-04-24 09:50:00,
2013-04-24 04:55:00,38.9,37.6,29.90,NNE,19,3.0,10.0,95,0.18,,RA,0.54,VWS V14.00,2013-04-24 09:55:00,
2013-04-24 05:00:00,38.9,37.6,29.91,NNE,15,2.0,10.0,95,0.19,,RA,0.55,VWS V14.00,2013-04-24 10:00:00,
2013-04-24 05:05:00,38.8,37.5,29.92,NNW,341,0.0,12.0,95,0.20,,RA,0.56,VWS V14.00,2013-04-24 10:05:00,
2013-04-24 05:10:00,38.8,37.2,29.94,NNW,345,0.0,12.0,94,0.21,,RA,0.57,VWS V14.00,2013-04-24 10:10:00,
2013-04-24 05:15:00,38.8,37.2,29.93,NW,313,1.0,12.0,94,0.23,,RA,0.59,VWS V14.00,2013-04-24 10:15:00,
2013-04-24 05:20:00,38.8,37.2,29.94,NNE,20,2.0,12.0,94,0.24,,RA,0.60,VWS V14.00,2013-04-24 10:20:00,
2013-04-24 05:25:00,38.8,37.2,29.94,NNE,19,0.0,3.0,94,0.18,,RA,0.62,VWS V14.00,2013-04-24 10:25:00,
2013-04-24 05:30:00,38.8,37.5,29.95,NW,317,3.0,6.0,95,0.19,,RA,0.63,VWS V14.00,2013-04-24 10:30:00,
2013-04-24 05:35:00,38.8,37.5,29.95,NW,317,0.0,6.0,95,0.19,,RA,0.63,VWS V14.00,2013-04-24 10:35:00,
2013-04-24 05:40:00,38.8,37.5,29.95,NW,325,1.0,9.0,95,0.19,,-RA,0.63,VWS V14.00,2013-04-24 10:40:00,
2013-04-24 05:45:00,38.8,37.5,29.95,NNW,347,3.0,9.0,95,0.19,,-RA,0.63,VWS V14.00,2013-04-24 10:45:00,
2013-04-24 05:50:00,38.8,37.5,29.94,NW,315,3.0,9.0,95,0.20,,-RA,0.64,VWS V14.00,2013-04-24 10:50:00,
2013-04-24 05:55:00,38.8,37.5,29.94,NW,305,3.0,5.0,95,0.11,,-RA,0.64,VWS V14.00,2013-04-24 10:55:00,
2013-04-24 06:00:00,38.9,37.6,29.93,North,355,1.0,8.0,95,0.11,,-RA,0.64,VWS V14.00,2013-04-24 11:00:00,
2013-04-24 06:05:00,38.9,37.6,29.92,NNW,335,2.0,8.0,95,0.11,,-RA,0.64,VWS V14.00,2013-04-24 11:05:00,
2013-04-24 06:10:00,38.9,37.6,29.92,North,9,3.0,8.0,95,0.11,,-RA,0.64,VWS V14.00,2013-04-24 11:10:00,
2013-04-24 06:15:00,38.9,37.6,29.92,NNW,339,4.0,10.0,95,0.11,,-RA,0.64,VWS V14.00,2013-04-24 11:15:00,
2013-04-24 06:20:00,38.9,37.6,29.92,NW,319,2.0,10.0,95,0.11,,OVC017,0.64,VWS V14.00,2013-04-24 11:20:00,
2013-04-24 06:25:00,38.9,37.6,29.92,NNW,339,2.0,6.0,95,0.04,,OVC017,0.64,VWS V14.00,2013-04-24 11:25:00,
2013-04-24 06:30:00,38.9,37.6,29.92,NNW,339,1.0,9.0,95,0.04,,OVC017,0.64,VWS V14.00,2013-04-24 11:30:00,
2013-04-24 06:35:00,39.0,37.7,29.93,North,360,3.0,9.0,95,0.04,,OVC017,0.64,VWS V14.00,2013-04-24 11:35:00,
2013-04-24 06:40:00,39.0,37.7,29.93,North,11,4.0,9.0,95,0.04,,OVC017,0.64,VWS V14.00,2013-04-24 11:40:00,
2013-04-24 06:45:00,39.0,37.7,29.92,North,351,1.0,9.0,95,0.04,,OVC017,0.64,VWS V14.00,2013-04-24 11:45:00,
2013-04-24 06:50:00,39.1,37.8,29.92,NNW,347,4.0,9.0,95,0.04,,OVC017,0.64,VWS V14.00,2013-04-24 11:50:00,
2013-04-24 06:55:00,39.1,37.8,29.93,NNW,347,2.0,6.0,95,0.00,,OVC017,0.64,VWS V14.00,2013-04-24 11:55:00,
2013-04-24 07:00:00,39.1,37.5,29.94,North,9,7.0,9.0,94,0.00,,OVC017,0.64,VWS V14.00,2013-04-24 12:00:00,
2013-04-24 07:05:00,39.1,37.5,29.94,NNW,331,3.0,9.0,94,0.00,,OVC017,0.64,VWS V14.00,2013-04-24 12:05:00,
2013-04-24 07:10:00,39.1,37.5,29.93,North,355,5.0,11.0,94,0.00,,OVC017,0.64,VWS V14.00,2013-04-24 12:10:00,
2013-04-24 07:15:00,39.1,37.5,29.93,North,355,6.0,11.0,94,0.00,,OVC017,0.64,VWS V14.00,2013-04-24 12:15:00,
2013-04-24 07:20:00,39.1,37.5,29.94,NNW,348,4.0,11.0,94,0.00,,OVC019,0.64,VWS V14.00,2013-04-24 12:20:00,
2013-04-24 07:25:00,39.1,37.5,29.96,NNW,338,4.0,6.0,94,0.00,,OVC019,0.64,VWS V14.00,2013-04-24 12:25:00,
2013-04-24 07:30:00,39.2,37.6,29.98,West,277,2.0,6.0,94,0.00,,OVC019,0.64,VWS V14.00,2013-04-24 12:30:00,
2013-04-24 07:35:00,39.2,37.6,29.99,WSW,252,3.0,8.0,94,0.00,,OVC019,0.64,VWS V14.00,2013-04-24 12:35:00,
2013-04-24 07:40:00,39.2,37.6,30.00,NNW,341,3.0,8.0,94,0.00,,OVC017,0.64,VWS V14.00,2013-04-24 12:40:00,
2013-04-24 07:45:00,39.4,37.5,30.00,NNE,26,3.0,15.0,93,0.00,,OVC017,0.64,VWS V14.00,2013-04-24 12:45:00,
2013-04-24 07:50:00,39.4,37.5,30.00,NNW,343,2.0,15.0,93,0.00,,OVC017,0.64,VWS V14.00,2013-04-24 12:50:00,
2013-04-24 07:55:00,39.4,37.5,30.01,NW,315,9.0,9.0,93,0.00,,OVC017,0.64,VWS V14.00,2013-04-24 12:55:00,
2013-04-24 08:00:00,39.5,37.7,30.02,WNW,300,4.0,11.0,93,0.00,,OVC015,0.64,VWS V14.00,2013-04-24 13:00:00,
2013-04-24 08:05:00,39.6,37.8,30.02,WSW,250,1.0,11.0,93,0.00,,OVC015,0.64,VWS V14.00,2013-04-24 13:05:00,
2013-04-24 08:10:00,39.7,37.8,30.03,NNW,333,2.0,11.0,93,0.00,,OVC015,0.64,VWS V14.00,2013-04-24 13:10:00,
2013-04-24 08:15:00,39.6,37.5,30.03,WNW,302,7.0,11.0,92,0.00,,OVC015,0.64,VWS V14.00,2013-04-24 13:15:00,
2013-04-24 08:20:00,39.7,37.6,30.03,NW,310,6.0,11.0,92,0.00,,-RA,0.64,VWS V14.00,2013-04-24 13:20:00,
2013-04-24 08:25:00,39.8,37.7,30.04,NW,314,4.0,8.0,92,0.00,,-RA,0.64,VWS V14.00,2013-04-24 13:25:00,
2013-04-24 08:30:00,39.7,37.6,30.04,WNW,298,3.0,8.0,92,0.01,,-RA,0.65,VWS V14.00,2013-04-24 13:30:00,
2013-04-24 08:35:00,39.5,37.4,30.05,NNW,342,10.0,16.0,92,0.01,,-RA,0.65,VWS V14.00,2013-04-24 13:35:00,
2013-04-24 08:40:00,39.3,37.2,30.05,NNW,341,8.0,17.0,92,0.02,,RA,0.66,VWS V14.00,2013-04-24 13:40:00,
2013-04-24 08:45:00,39.2,37.3,30.05,WSW,254,9.0,17.0,93,0.02,,RA,0.66,VWS V14.00,2013-04-24 13:45:00,
2013-04-24 08:50:00,38.9,36.8,30.06,NW,313,6.0,17.0,92,0.03,,RA,0.67,VWS V14.00,2013-04-24 13:50:00,
2013-04-24 08:55:00,38.8,36.7,30.06,WNW,286,3.0,14.0,92,0.03,,RA,0.67,VWS V14.00,2013-04-24 13:55:00,
2013-04-24 09:00:00,38.9,37.0,30.05,North,351,5.0,14.0,93,0.03,,-RA,0.67,VWS V14.00,2013-04-24 14:00:00,
2013-04-24 09:05:00,39.2,37.3,30.05,WNW,282,5.0,14.0,93,0.03,,-RA,0.67,VWS V14.00,2013-04-24 14:05:00,
2013-04-24 09:10:00,39.5,37.7,30.04,SW,236,3.0,14.0,93,0.03,,-RA,0.67,VWS V14.00,2013-04-24 14:10:00,
2013-04-24 09:15:00,39.7,37.8,30.04,West,265,6.0,14.0,93,0.03,,-RA,0.67,VWS V14.00,2013-04-24 14:15:00,
2013-04-24 09:20:00,39.4,37.3,30.04,WNW,298,4.0,14.0,92,0.03,,OVC021,0.67,VWS V14.00,2013-04-24 14:20:00,
2013-04-24 09:25:00,39.3,37.5,30.04,WNW,297,7.0,13.0,93,0.03,,OVC021,0.67,VWS V14.00,2013-04-24 14:25:00,
2013-04-24 09:30:00,39.4,37.5,30.04,WNW,300,10.0,13.0,93,0.03,,OVC021,0.67,VWS V14.00,2013-04-24 14:30:00,
2013-04-24 09:35:00,39.6,37.8,30.05,NNW,329,2.0,13.0,93,0.03,,OVC021,0.67,VWS V14.00,2013-04-24 14:35:00,
2013-04-24 09:40:00,39.5,37.4,30.05,WSW,251,11.0,14.0,92,0.03,,OVC016,0.67,VWS V14.00,2013-04-24 14:40:00,
2013-04-24 09:45:00,39.5,37.4,30.05,West,271,8.0,14.0,92,0.03,,OVC016,0.67,VWS V14.00,2013-04-24 14:45:00,
2013-04-24 09:50:00,39.6,37.5,30.05,NNW,329,8.0,14.0,92,0.03,,OVC016,0.67,VWS V14.00,2013-04-24 14:50:00,
2013-04-24 09:55:00,39.7,37.3,30.05,West,263,10.0,13.0,91,0.00,,OVC016,0.67,VWS V14.00,2013-04-24 14:55:00,
2013-04-24 10:00:00,39.7,37.3,30.06,West,266,5.0,15.0,91,0.00,,OVC015,0.67,VWS V14.00,2013-04-24 15:00:00,
2013-04-24 10:05:00,39.5,37.1,30.07,NW,310,6.0,15.0,91,0.00,,OVC015,0.67,VWS V14.00,2013-04-24 15:05:00,
2013-04-24 10:10:00,39.4,36.7,30.07,WNW,288,3.0,16.0,90,0.00,,OVC015,0.67,VWS V14.00,2013-04-24 15:10:00,
2013-04-24 10:15:00,39.2,36.2,30.07,South,171,6.0,16.0,89,0.00,,OVC015,0.67,VWS V14.00,2013-04-24 15:15:00,
2013-04-24 10:20:00,39.2,36.5,30.08,West,278,9.0,16.0,90,0.00,,OVC015,0.67,VWS V14.00,2013-04-24 15:20:00,
2013-04-24 10:25:00,39.3,36.6,30.07,WNW,292,3.0,10.0,90,0.00,,OVC015,0.67,VWS V14.00,2013-04-24 15:25:00,
2013-04-24 10:30:00,39.4,36.7,30.08,WNW,297,4.0,12.0,90,0.00,,OVC015,0.67,VWS V14.00,2013-04-24 15:30:00,
2013-04-24 10:35:00,39.5,36.8,30.08,WNW,284,2.0,13.0,90,0.00,,OVC015,0.67,VWS V14.00,2013-04-24 15:35:00,
2013-04-24 10:40:00,39.5,36.2,30.09,WSW,240,11.0,17.0,88,0.00,,OVC017,0.67,VWS V14.00,2013-04-24 15:40:00,
2013-04-24 10:45:00,39.4,36.2,30.08,ENE,65,3.0,17.0,88,0.00,,OVC017,0.67,VWS V14.00,2013-04-24 15:45:00,
2013-04-24 10:50:00,39.5,36.2,30.09,NNW,333,4.0,18.0,88,0.00,,OVC017,0.67,VWS V14.00,2013-04-24 15:50:00,
2013-04-24 10:55:00,39.8,36.2,30.10,WNW,285,4.0,14.0,87,0.00,,OVC017,0.67,VWS V14.00,2013-04-24 15:55:00,
2013-04-24 11:00:00,40.0,36.5,30.10,NW,321,7.0,14.0,87,0.00,,OVC025,0.67,VWS V14.00,2013-04-24 16:00:00,
2013-04-24 11:05:00,39.9,36.1,30.10,West,269,9.0,14.0,86,0.00,,OVC025,0.67,VWS V14.00,2013-04-24 16:05:00,
2013-04-24 11:10:00,40.0,36.2,30.11,NW,313,3.0,18.0,86,0.00,,OVC025,0.67,VWS V14.00,2013-04-24 16:10:00,
2013-04-24 11:15:00,40.4,36.5,30.11,West,271,10.0,18.0,86,0.00,,OVC025,0.67,VWS V14.00,2013-04-24 16:15:00,
2013-04-24 11:20:00,40.9,36.8,30.12,NW,314,5.0,18.0,85,0.00,,OVC038,0.67,VWS V14.00,2013-04-24 16:20:00,
2013-04-24 11:25:00,41.3,36.8,30.11,WSW,238,4.0,16.0,84,0.00,,OVC038,0.67,VWS V14.00,2013-04-24 16:25:00,
2013-04-24 11:30:00,41.7,37.2,30.11,ENE,73,3.0,16.0,84,0.00,,OVC038,0.67,VWS V14.00,2013-04-24 16:30:00,
2013-04-24 11:35:00,42.2,38.0,30.11,WNW,285,8.0,16.0,85,0.00,,OVC038,0.67,VWS V14.00,2013-04-24 16:35:00,
2013-04-24 11:40:00,42.2,36.8,30.12,WNW,290,6.0,16.0,81,0.00,,OVC026,0.67,VWS V14.00,2013-04-24 16:40:00,
2013-04-24 11:45:00,41.8,36.7,30.13,North,350,6.0,16.0,82,0.00,,OVC026,0.67,VWS V14.00,2013-04-24 16:45:00,
2013-04-24 11:50:00,41.7,37.2,30.13,West,271,7.0,16.0,84,0.00,,OVC026,0.67,VWS V14.00,2013-04-24 16:50:00,
2013-04-24 11:55:00,41.6,36.2,30.12,North,9,6.0,12.0,81,0.00,,OVC026,0.67,VWS V14.00,2013-04-24 16:55:00,
2013-04-24 12:00:00,41.7,36.0,30.13,WNW,285,2.0,12.0,80,0.00,,OVC030,0.67,VWS V14.00,2013-04-24 17:00:00,
2013-04-24 12:05:00,41.9,36.2,30.13,NNW,343,7.0,12.0,80,0.00,,OVC030,0.67,VWS V14.00,2013-04-24 17:05:00,
2013-04-24 12:10:00,42.2,37.1,30.13,NW,306,1.0,12.0,82,0.00,,OVC030,0.67,VWS V14.00,2013-04-24 17:10:00,
2013-04-24 12:15:00,42.6,36.9,30.13,WSW,255,5.0,12.0,80,0.00,,OVC030,0.67,VWS V14.00,2013-04-24 17:15:00,
2013-04-24 12:20:00,43.1,36.7,30.14,WSW,247,8.0,12.0,78,0.00,,OVC034,0.67,VWS V14.00,2013-04-24 17:20:00,
2013-04-24 12:25:00,42.7,35.7,30.14,West,264,2.0,10.0,76,0.00,,OVC034,0.67,VWS V14.00,2013-04-24 17:25:00,
2013-04-24 12:30:00,43.2,36.8,30.13,NW,325,0.0,10.0,78,0.00,,OVC034,0.67,VWS V14.00,2013-04-24 17:30:00,
2013-04-24 12:35:00,44.3,37.6,30.13,NW,309,5.0,10.0,77,0.00,,OVC034,0.67,VWS V14.00,2013-04-24 17:35:00,
2013-04-24 12:40:00,44.5,36.4,30.13,West,278,5.0,11.0,73,0.00,,OVC033,0.67,VWS V14.00,2013-04-24 17:40:00,
2013-04-24 12:45:00,44.7,38.3,30.13,NNW,331,2.0,11.0,78,0.00,,OVC033,0.67,VWS V14.00,2013-04-24 17:45:00,
2013-04-24 12:50:00,44.7,37.3,30.14,West,259,3.0,11.0,75,0.00,,OVC033,0.67,VWS V14.00,2013-04-24 17:50:00,
2013-04-24 12:55:00,44.1,36.4,30.15,West,281,3.0,16.0,74,0.00,,OVC033,0.67,VWS V14.00,2013-04-24 17:55:00,
2013-04-24 13:00:00,44.1,36.7,30.15,NW,308,1.0,16.0,75,0.00,,BKN036,0.67,VWS V14.00,2013-04-24 18:00:00,
2013-04-24 13:05:00,44.5,37.1,30.14,NW,315,2.0,16.0,75,0.00,,BKN036,0.67,VWS V14.00,2013-04-24 18:05:00,
2013-04-24 13:10:00,45.5,37.4,30.14,NNE,20,3.0,16.0,73,0.00,,BKN036,0.67,VWS V14.00,2013-04-24 18:10:00,
2013-04-24 13:15:00,45.9,37.0,30.13,NE,49,3.0,16.0,71,0.00,,BKN036,0.67,VWS V14.00,2013-04-24 18:15:00,
2013-04-24 13:20:00,46.2,37.3,30.13,NW,320,9.0,16.0,71,0.00,,BKN038,0.67,VWS V14.00,2013-04-24 18:20:00,
2013-04-24 13:25:00,46.4,37.5,30.14,West,265,6.0,9.0,71,0.00,,BKN038,0.67,VWS V14.00,2013-04-24 18:25:00,
2013-04-24 13:29:00,45.8,36.6,30.14,West,267,6.0,13.0,70,0.00,,BKN038,0.67,VWS V14.00,2013-04-24 18:29:00,
2013-04-24 13:30:00,46.3,36.0,30.13,WNW,300,4.0,16.0,67,0.00,,CLR,0.67,VWS V14.00,2013-04-24 18:30:00,
2013-04-24 13:34:00,45.5,36.7,30.14,WNW,286,5.0,13.0,71,0.00,,BKN038,0.67,VWS V14.00,2013-04-24 18:34:00,
2013-04-24 13:39:00,45.5,36.3,30.14,WNW,300,5.0,13.0,70,0.00,,OVC040,0.67,VWS V14.00,2013-04-24 18:39:00,
2013-04-24 13:44:00,45.3,35.4,30.15,West,280,4.0,13.0,68,0.00,,OVC040,0.67,VWS V14.00,2013-04-24 18:44:00,
2013-04-24 13:49:00,45.2,35.7,30.15,NNE,17,4.0,13.0,69,0.00,,OVC040,0.67,VWS V14.00,2013-04-24 18:49:00,
2013-04-24 13:54:00,45.8,36.6,30.15,North,349,4.0,7.0,70,0.00,,OVC040,0.67,VWS V14.00,2013-04-24 18:54:00,
2013-04-24 13:59:00,45.9,35.6,30.15,West,259,3.0,10.0,67,0.00,,BKN048,0.67,VWS V14.00,2013-04-24 18:59:00,
2013-04-24 14:00:00,45.3,35.7,30.15,North,355,3.0,13.0,69,0.00,,CLR,0.67,VWS V14.00,2013-04-24 19:00:00,
2013-04-24 14:04:00,46.4,37.9,30.15,West,277,5.0,11.0,72,0.00,,BKN048,0.67,VWS V14.00,2013-04-24 19:04:00,
2013-04-24 14:09:00,45.9,35.2,30.16,West,274,3.0,11.0,66,0.00,,BKN048,0.67,VWS V14.00,2013-04-24 19:09:00,
2013-04-24 14:14:00,45.5,35.2,30.16,NNW,329,9.0,11.0,67,0.00,,BKN048,0.67,VWS V14.00,2013-04-24 19:14:00,
2013-04-24 14:19:00,45.6,34.9,30.16,West,264,6.0,11.0,66,0.00,,SCT047,0.67,VWS V14.00,2013-04-24 19:19:00,
2013-04-24 14:24:00,45.4,34.7,30.16,West,268,7.0,8.0,66,0.00,,SCT047,0.67,VWS V14.00,2013-04-24 19:24:00,
2013-04-24 14:29:00,45.4,35.5,30.16,NNW,329,4.0,8.0,68,0.00,,SCT047,0.67,VWS V14.00,2013-04-24 19:29:00,
2013-04-24 14:30:00,45.6,34.5,30.16,West,273,4.0,11.0,65,0.00,,CLR,0.67,VWS V14.00,2013-04-24 19:30:00,
2013-04-24 14:35:00,45.8,35.8,30.16,NE,40,2.0,9.0,68,0.00,,SCT047,0.67,VWS V14.00,2013-04-24 19:35:00,
2013-04-24 14:40:00,46.0,35.3,30.17,West,266,3.0,9.0,66,0.00,,BKN047,0.67,VWS V14.00,2013-04-24 19:40:00,
2013-04-24 14:45:00,46.5,35.8,30.17,WSW,254,1.0,9.0,66,0.00,,BKN047,0.67,VWS V14.00,2013-04-24 19:45:00,
2013-04-24 14:50:00,47.3,35.4,30.17,WNW,282,11.0,14.0,63,0.00,,BKN047,0.67,VWS V14.00,2013-04-24 19:50:00,
2013-04-24 14:55:00,47.9,39.3,30.17,West,264,4.0,11.0,72,0.00,,BKN047,0.67,VWS V14.00,2013-04-24 19:55:00,
2013-04-24 15:00:00,47.9,35.9,30.17,NNW,329,1.0,11.0,63,0.00,,BKN050,0.67,VWS V14.00,2013-04-24 20:00:00,
2013-04-24 15:05:00,48.0,36.0,30.17,WSW,252,9.0,13.0,63,0.00,,BKN050,0.67,VWS V14.00,2013-04-24 20:05:00,
2013-04-24 15:10:00,47.3,34.5,30.17,WNW,284,4.0,13.0,61,0.00,,BKN050,0.67,VWS V14.00,2013-04-24 20:10:00,
2013-04-24 15:15:00,47.0,33.8,30.17,WNW,286,3.0,13.0,60,0.00,,BKN050,0.67,VWS V14.00,2013-04-24 20:15:00,
2013-04-24 15:20:00,46.9,34.2,30.17,NW,307,8.0,13.0,61,0.00,,BKN049,0.67,VWS V14.00,2013-04-24 20:20:00,
2013-04-24 15:25:00,46.7,33.6,30.17,WNW,297,5.0,9.0,60,0.00,,BKN049,0.67,VWS V14.00,2013-04-24 20:25:00,
2013-04-24 15:30:00,46.7,33.2,30.17,West,278,3.0,9.0,59,0.00,,BKN049,0.67,VWS V14.00,2013-04-24 20:30:00,
2013-04-24 15:35:00,46.8,34.5,30.17,West,281,1.0,9.0,62,0.00,,BKN049,0.67,VWS V14.00,2013-04-24 20:35:00,
2013-04-24 15:40:00,47.3,35.4,30.17,WSW,252,7.0,9.0,63,0.00,,SCT110,0.67,VWS V14.00,2013-04-24 20:40:00,
2013-04-24 15:45:00,48.3,36.7,30.17,WNW,286,8.0,10.0,64,0.00,,SCT110,0.67,VWS V14.00,2013-04-24 20:45:00,
2013-04-24 15:50:00,49.0,35.3,30.17,WNW,289,5.0,14.0,59,0.00,,SCT110,0.67,VWS V14.00,2013-04-24 20:50:00,
2013-04-24 15:55:00,49.0,34.5,30.17,WSW,237,6.0,12.0,57,0.00,,SCT110,0.67,VWS V14.00,2013-04-24 20:55:00,
2013-04-24 16:00:00,49.2,36.3,30.17,NW,316,2.0,12.0,61,0.00,,SCT110,0.67,VWS V14.00,2013-04-24 21:00:00,
2013-04-24 16:05:00,48.1,32.7,30.17,SW,235,5.0,12.0,55,0.00,,SCT110,0.67,VWS V14.00,2013-04-24 21:05:00,
2013-04-24 16:10:00,48.2,34.6,30.17,West,271,5.0,12.0,59,0.00,,SCT110,0.67,VWS V14.00,2013-04-24 21:10:00,
2013-04-24 16:15:00,48.7,35.5,30.17,WSW,252,5.0,12.0,60,0.00,,SCT110,0.67,VWS V14.00,2013-04-24 21:15:00,
2013-04-24 16:20:00,48.9,35.2,30.17,NW,305,3.0,12.0,59,0.00,,BKN046,0.67,VWS V14.00,2013-04-24 21:20:00,
2013-04-24 16:25:00,48.0,33.1,30.17,West,275,3.0,8.0,56,0.00,,BKN046,0.67,VWS V14.00,2013-04-24 21:25:00,
2013-04-24 16:30:00,47.5,33.9,30.17,West,270,7.0,9.0,59,0.00,,BKN046,0.67,VWS V14.00,2013-04-24 21:30:00,
2013-04-24 16:35:00,47.6,34.8,30.18,WSW,257,0.0,9.0,61,0.00,,BKN046,0.67,VWS V14.00,2013-04-24 21:35:00,
2013-04-24 16:40:00,47.7,34.5,30.17,WSW,240,4.0,9.0,60,0.00,,BKN100,0.67,VWS V14.00,2013-04-24 21:40:00,
2013-04-24 16:45:00,49.0,35.7,30.17,West,264,8.0,13.0,60,0.00,,BKN100,0.67,VWS V14.00,2013-04-24 21:45:00,
2013-04-24 16:50:00,49.0,34.9,30.17,WSW,245,5.0,15.0,58,0.00,,BKN100,0.67,VWS V14.00,2013-04-24 21:50:00,
2013-04-24 16:55:00,48.8,35.1,30.17,West,281,5.0,8.0,59,0.00,,BKN100,0.67,VWS V14.00,2013-04-24 21:55:00,
2013-04-24 17:00:00,48.9,34.8,30.17,WSW,249,0.0,8.0,58,0.00,,SCT100,0.67,VWS V14.00,2013-04-24 22:00:00,
2013-04-24 17:05:00,49.6,34.6,30.17,West,273,5.0,11.0,56,0.00,,SCT100,0.67,VWS V14.00,2013-04-24 22:05:00,
2013-04-24 17:10:00,49.4,33.5,30.17,WSW,246,9.0,11.0,54,0.00,,SCT100,0.67,VWS V14.00,2013-04-24 22:10:00,
2013-04-24 17:15:00,48.9,33.5,30.17,WSW,254,2.0,11.0,55,0.00,,SCT100,0.67,VWS V14.00,2013-04-24 22:15:00,
2013-04-24 17:20:00,49.2,35.1,30.17,WNW,283,2.0,11.0,58,0.00,,SCT046,0.67,VWS V14.00,2013-04-24 22:20:00,
2013-04-24 17:25:00,49.5,36.2,30.17,West,280,1.0,6.0,60,0.00,,SCT046,0.67,VWS V14.00,2013-04-24 22:25:00,
2013-04-24 17:30:00,49.6,34.1,30.17,West,276,5.0,8.0,55,0.00,,SCT046,0.67,VWS V14.00,2013-04-24 22:30:00,
2013-04-24 17:35:00,49.6,33.7,30.17,WSW,247,3.0,9.0,54,0.00,,SCT046,0.67,VWS V14.00,2013-04-24 22:35:00,
2013-04-24 17:40:00,49.5,34.9,30.18,WNW,288,8.0,9.0,57,0.00,,SCT046,0.67,VWS V14.00,2013-04-24 22:40:00,
2013-04-24 17:45:00,49.6,34.6,30.18,West,267,6.0,9.0,56,0.00,,SCT046,0.67,VWS V14.00,2013-04-24 22:45:00,
2013-04-24 17:50:00,49.2,34.2,30.18,West,265,7.0,9.0,56,0.00,,SCT046,0.67,VWS V14.00,2013-04-24 22:50:00,
2013-04-24 17:55:00,49.0,34.0,30.18,WNW,292,3.0,8.0,56,0.00,,SCT046,0.67,VWS V14.00,2013-04-24 22:55:00,
2013-04-24 18:00:00,49.2,33.3,30.18,WSW,250,5.0,8.0,54,0.00,,SCT048,0.67,VWS V14.00,2013-04-24 23:00:00,
2013-04-24 18:05:00,49.4,33.5,30.18,SW,224,2.0,8.0,54,0.00,,SCT048,0.67,VWS V14.00,2013-04-24 23:05:00,
2013-04-24 18:09:00,49.4,34.4,30.18,West,274,6.0,8.0,56,0.00,,SCT048,0.67,VWS V14.00,2013-04-24 23:09:00,
2013-04-24 18:14:00,49.4,35.3,30.18,WSW,254,4.0,8.0,58,0.00,,SCT048,0.67,VWS V14.00,2013-04-24 23:14:00,
2013-04-24 18:19:00,49.4,32.5,30.18,West,260,5.0,9.0,52,0.00,,CLR,0.67,VWS V14.00,2013-04-24 23:19:00,
2013-04-24 18:24:00,49.1,32.2,30.18,SW,222,6.0,6.0,52,0.00,,CLR,0.67,VWS V14.00,2013-04-24 23:24:00,
2013-04-24 18:29:00,49.0,35.7,30.18,WSW,256,2.0,7.0,60,0.00,,CLR,0.67,VWS V14.00,2013-04-24 23:29:00,
2013-04-24 18:30:00,49.2,32.8,30.18,West,281,2.0,9.0,53,0.00,,CLR,0.67,VWS V14.00,2013-04-24 23:30:00,
2013-04-24 18:34:00,49.1,35.0,30.18,WSW,255,2.0,7.0,58,0.00,,CLR,0.67,VWS V14.00,2013-04-24 23:34:00,
2013-04-24 18:39:00,49.1,32.7,30.18,WSW,253,1.0,7.0,53,0.00,,CLR,0.67,VWS V14.00,2013-04-24 23:39:00,
2013-04-24 18:44:00,49.0,33.1,30.18,West,262,3.0,7.0,54,0.00,,CLR,0.67,VWS V14.00,2013-04-24 23:44:00,
2013-04-24 18:50:00,48.7,32.8,30.17,West,263,0.0,7.0,54,0.00,,CLR,0.67,VWS V14.00,2013-04-24 23:50:00,
2013-04-24 18:55:00,48.8,33.4,30.18,West,265,5.0,5.0,55,0.00,,CLR,0.67,VWS V14.00,2013-04-24 23:55:00,
2013-04-24 18:59:00,48.5,33.5,30.18,West,266,5.0,6.0,56,0.00,,CLR,0.67,VWS V14.00,2013-04-24 23:59:00,
2013-04-24 19:00:00,48.7,33.3,30.17,West,263,0.0,7.0,55,0.00,,CLR,0.67,VWS V14.00,2013-04-25 00:00:00,
2013-04-24 19:04:00,48.3,34.2,30.18,West,266,1.0,6.0,58,0.00,,CLR,0.67,VWS V14.00,2013-04-25 00:04:00,
2013-04-24 19:09:00,48.1,33.2,30.18,West,266,0.0,6.0,56,0.00,,CLR,0.67,VWS V14.00,2013-04-25 00:09:00,
2013-04-24 19:14:00,47.6,34.0,30.19,West,266,1.0,6.0,59,0.00,,CLR,0.67,VWS V14.00,2013-04-25 00:14:00,
2013-04-24 19:19:00,47.1,34.4,30.19,West,266,0.0,6.0,61,0.00,,CLR,0.67,VWS V14.00,2013-04-25 00:19:00,
2013-04-24 19:24:00,46.7,34.8,30.19,West,266,0.0,0.0,63,0.00,,CLR,0.67,VWS V14.00,2013-04-25 00:24:00,
2013-04-24 19:29:00,46.3,34.8,30.19,West,266,0.0,0.0,64,0.00,,CLR,0.67,VWS V14.00,2013-04-25 00:29:00,
2013-04-24 19:30:00,47.0,34.7,30.19,West,266,0.0,6.0,62,0.00,,CLR,0.67,VWS V14.00,2013-04-25 00:30:00,
2013-04-24 19:34:00,45.7,34.2,30.19,West,266,0.0,0.0,64,0.00,,CLR,0.67,VWS V14.00,2013-04-25 00:34:00,
2013-04-24 19:39:00,45.0,34.0,30.19,West,266,0.0,0.0,65,0.00,,CLR,0.67,VWS V14.00,2013-04-25 00:39:00,
2013-04-24 19:44:00,44.5,33.9,30.19,West,266,0.0,0.0,66,0.00,,CLR,0.67,VWS V14.00,2013-04-25 00:44:00,
2013-04-24 19:49:00,44.0,34.1,30.19,West,266,0.0,0.0,68,0.00,,CLR,0.67,VWS V14.00,2013-04-25 00:49:00,
2013-04-24 19:54:00,43.6,34.1,30.19,West,266,0.0,0.0,69,0.00,,CLR,0.67,VWS V14.00,2013-04-25 00:54:00,
2013-04-24 19:59:00,43.3,34.2,30.20,West,266,0.0,0.0,70,0.00,,CLR,0.67,VWS V14.00,2013-04-25 00:59:00,
2013-04-24 20:00:00,43.9,34.4,30.19,West,266,0.0,0.0,69,0.00,,CLR,0.67,VWS V14.00,2013-04-25 01:00:00,
2013-04-24 20:04:00,43.0,34.2,30.20,West,266,0.0,0.0,71,0.00,,CLR,0.67,VWS V14.00,2013-04-25 01:04:00,
2013-04-24 20:09:00,42.6,33.9,30.20,West,266,0.0,0.0,71,0.00,,CLR,0.67,VWS V14.00,2013-04-25 01:09:00,
2013-04-24 20:14:00,42.2,33.8,30.20,West,266,0.0,0.0,72,0.00,,CLR,0.67,VWS V14.00,2013-04-25 01:14:00,
2013-04-24 20:19:00,42.0,34.7,30.20,West,266,0.0,0.0,75,0.00,,CLR,0.67,VWS V14.00,2013-04-25 01:19:00,
2013-04-24 20:24:00,41.7,36.0,30.21,West,266,0.0,0.0,80,0.00,,CLR,0.67,VWS V14.00,2013-04-25 01:24:00,
2013-04-24 20:29:00,41.5,36.4,30.21,West,266,0.0,0.0,82,0.00,,CLR,0.67,VWS V14.00,2013-04-25 01:29:00,
2013-04-24 20:30:00,41.9,34.9,30.20,West,266,0.0,0.0,76,0.00,,CLR,0.67,VWS V14.00,2013-04-25 01:30:00,
2013-04-24 20:34:00,41.1,35.7,30.21,West,266,0.0,0.0,81,0.00,,CLR,0.67,VWS V14.00,2013-04-25 01:34:00,
2013-04-24 20:39:00,40.8,35.4,30.21,West,266,0.0,0.0,81,0.00,,CLR,0.67,VWS V14.00,2013-04-25 01:39:00,
2013-04-24 20:44:00,40.4,35.3,30.22,West,266,0.0,0.0,82,0.00,,CLR,0.67,VWS V14.00,2013-04-25 01:44:00,
2013-04-24 20:49:00,40.2,35.5,30.22,West,266,0.0,0.0,83,0.00,,CLR,0.67,VWS V14.00,2013-04-25 01:49:00,
2013-04-24 20:54:00,40.1,35.7,30.22,West,266,0.0,0.0,84,0.00,,CLR,0.67,VWS V14.00,2013-04-25 01:54:00,
2013-04-24 20:59:00,40.0,35.6,30.22,West,266,0.0,0.0,84,0.00,,CLR,0.67,VWS V14.00,2013-04-25 01:59:00,
2013-04-24 21:00:00,40.2,35.5,30.22,West,266,0.0,0.0,83,0.00,,CLR,0.67,VWS V14.00,2013-04-25 02:00:00,
2013-04-24 21:04:00,39.8,35.4,30.22,West,266,0.0,0.0,84,0.00,,CLR,0.67,VWS V14.00,2013-04-25 02:04:00,
2013-04-24 21:09:00,39.6,35.2,30.22,West,266,0.0,0.0,84,0.00,,CLR,0.67,VWS V14.00,2013-04-25 02:09:00,
2013-04-24 21:16:00,39.4,35.3,30.22,West,266,0.0,0.0,85,0.00,,CLR,0.67,VWS V14.00,2013-04-25 02:16:00,
2013-04-24 21:21:00,39.2,35.1,30.23,West,266,0.0,0.0,85,0.00,,CLR,0.67,VWS V14.00,2013-04-25 02:21:00,
2013-04-24 21:30:00,39.2,35.1,30.23,West,266,0.0,0.0,85,0.00,,CLR,0.67,VWS V14.00,2013-04-25 02:30:00,
2013-04-24 21:33:00,38.7,34.9,30.23,West,266,0.0,0.0,86,0.00,,CLR,0.67,VWS V14.00,2013-04-25 02:33:00,
2013-04-24 21:38:00,38.5,35.3,30.23,West,266,0.0,0.0,88,0.00,,CLR,0.67,VWS V14.00,2013-04-25 02:38:00,
2013-04-24 21:43:00,38.4,35.2,30.23,West,266,0.0,0.0,88,0.00,,CLR,0.67,VWS V14.00,2013-04-25 02:43:00,
2013-04-24 21:48:00,38.4,35.2,30.23,West,266,0.0,0.0,88,0.00,,CLR,0.67,VWS V14.00,2013-04-25 02:48:00,
2013-04-24 21:53:00,38.3,35.1,30.24,West,266,0.0,0.0,88,0.00,,CLR,0.67,VWS V14.00,2013-04-25 02:53:00,
2013-04-24 21:58:00,38.1,35.2,30.24,West,266,0.0,0.0,89,0.00,,CLR,0.67,VWS V14.00,2013-04-25 02:58:00,
2013-04-24 22:00:00,38.3,35.1,30.24,West,266,0.0,0.0,88,0.00,,CLR,0.67,VWS V14.00,2013-04-25 03:00:00,
2013-04-24 22:05:00,38.0,35.3,30.24,West,266,0.0,0.0,90,0.00,,CLR,0.67,VWS V14.00,2013-04-25 03:05:00,
2013-04-24 22:10:00,38.1,35.7,30.24,West,266,0.0,1.0,91,0.00,,CLR,0.67,VWS V14.00,2013-04-25 03:10:00,
2013-04-24 22:15:00,38.1,35.7,30.24,West,266,0.0,1.0,91,0.00,,CLR,0.67,VWS V14.00,2013-04-25 03:15:00,
2013-04-24 22:20:00,38.0,35.6,30.24,West,266,0.0,1.0,91,0.00,,CLR,0.67,VWS V14.00,2013-04-25 03:20:00,
2013-04-24 22:27:00,37.8,35.4,30.24,West,266,0.0,0.0,91,0.00,,CLR,0.67,VWS V14.00,2013-04-25 03:27:00,
2013-04-24 22:30:00,38.0,35.6,30.24,West,266,0.0,1.0,91,0.00,,CLR,0.67,VWS V14.00,2013-04-25 03:30:00,
2013-04-24 22:32:00,37.8,35.7,30.24,West,266,0.0,0.0,92,0.00,,CLR,0.67,VWS V14.00,2013-04-25 03:32:00,
2013-04-24 22:37:00,37.7,35.6,30.24,West,266,0.0,0.0,92,0.00,,CLR,0.67,VWS V14.00,2013-04-25 03:37:00,
2013-04-24 22:42:00,37.7,35.6,30.24,West,266,0.0,0.0,92,0.00,,CLR,0.67,VWS V14.00,2013-04-25 03:42:00,
2013-04-24 22:47:00,37.6,35.5,30.25,West,266,0.0,0.0,92,0.00,,CLR,0.67,VWS V14.00,2013-04-25 03:47:00,
2013-04-24 22:52:00,37.5,35.4,30.25,West,266,0.0,0.0,92,0.00,,CLR,0.67,VWS V14.00,2013-04-25 03:52:00,
2013-04-24 22:57:00,37.4,35.3,30.25,West,266,0.0,0.0,92,0.00,,CLR,0.67,VWS V14.00,2013-04-25 03:57:00,
2013-04-24 23:00:00,37.5,35.4,30.25,West,266,0.0,0.0,92,0.00,,CLR,0.67,VWS V14.00,2013-04-25 04:00:00,
2013-04-24 23:01:00,37.3,34.9,30.25,West,266,0.0,0.0,91,0.00,,CLR,0.67,VWS V14.00,2013-04-25 04:01:00,
2013-04-24 23:06:00,37.2,35.1,30.25,West,266,0.0,0.0,92,0.00,,CLR,0.67,VWS V14.00,2013-04-25 04:06:00,
2013-04-24 23:11:00,37.2,35.1,30.24,West,266,0.0,0.0,92,0.00,,CLR,0.67,VWS V14.00,2013-04-25 04:11:00,
2013-04-24 23:16:00,37.1,35.0,30.24,West,266,0.0,0.0,92,0.00,,CLR,0.67,VWS V14.00,2013-04-25 04:16:00,
2013-04-24 23:21:00,37.1,35.0,30.24,West,266,0.0,0.0,92,0.00,,CLR,0.67,VWS V14.00,2013-04-25 04:21:00,
2013-04-24 23:26:00,37.0,34.9,30.24,West,266,0.0,1.0,92,0.00,,CLR,0.67,VWS V14.00,2013-04-25 04:26:00,
2013-04-24 23:30:00,37.1,35.0,30.24,West,266,0.0,0.0,92,0.00,,CLR,0.67,VWS V14.00,2013-04-25 04:30:00,
2013-04-24 23:31:00,36.9,34.8,30.24,West,266,0.0,1.0,92,0.00,,CLR,0.67,VWS V14.00,2013-04-25 04:31:00,
2013-04-24 23:36:00,36.8,34.7,30.24,West,266,0.0,1.0,92,0.00,,CLR,0.67,VWS V14.00,2013-04-25 04:36:00,
2013-04-24 23:41:00,36.7,34.6,30.24,West,266,0.0,1.0,92,0.00,,CLR,0.67,VWS V14.00,2013-04-25 04:41:00,
2013-04-24 23:46:00,36.6,34.8,30.24,West,266,0.0,1.0,93,0.00,,CLR,0.67,VWS V14.00,2013-04-25 04:46:00,
2013-04-24 23:51:00,36.5,34.4,30.24,West,266,0.0,1.0,92,0.00,,CLR,0.67,VWS V14.00,2013-04-25 04:51:00,
2013-04-24 23:56:00,36.5,34.7,30.24,West,266,0.0,0.0,93,0.00,,CLR,0.00,VWS V14.00,2013-04-25 04:56:00,